sensor_id;sensor_type;location;lat;lon;timestamp;P1;P2;P0
80396;PMS5003;69721;55.894;-3.052;2023-05-07T00:01:20;41;32;
80396;PMS5003;69721;55.894;-3.052;2023-05-07T00:03:45;41;35;
80396;PMS5003;69721;55.894;-3.052;2023-05-07T00:06:11;41;37;
80396;PMS5003;69721;55.894;-3.052;2023-05-07T00:08:36;35;32;
80396;PMS5003;69721;55.894;-3.052;2023-05-07T00:11:01;32;29;
80396;PMS5003;69721;55.894;-3.052;2023-05-07T00:13:26;36;29;
80396;PMS5003;69721;55.894;-3.052;2023-05-07T00:15:52;33;29;
80396;PMS5003;69721;55.894;-3.052;2023-05-07T00:18:18;33;26;
80396;PMS5003;69721;55.894;-3.052;2023-05-07T00:20:43;35;28;
80396;PMS5003;69721;55.894;-3.052;2023-05-07T00:23:09;35;31;
80396;PMS5003;69721;55.894;-3.052;2023-05-07T00:25:35;22;22;
80396;PMS5003;69721;55.894;-3.052;2023-05-07T00:28:00;39;30;
80396;PMS5003;69721;55.894;-3.052;2023-05-07T00:30:25;34;29;
80396;PMS5003;69721;55.894;-3.052;2023-05-07T00:32:50;30;27;
80396;PMS5003;69721;55.894;-3.052;2023-05-07T00:35:15;36;32;
80396;PMS5003;69721;55.894;-3.052;2023-05-07T00:37:41;36;33;
80396;PMS5003;69721;55.894;-3.052;2023-05-07T00:40:08;37;26;
80396;PMS5003;69721;55.894;-3.052;2023-05-07T00:42:32;37;31;
80396;PMS5003;69721;55.894;-3.052;2023-05-07T00:44:58;31;23;
80396;PMS5003;69721;55.894;-3.052;2023-05-07T00:47:23;39;30;
80396;PMS5003;69721;55.894;-3.052;2023-05-07T00:49:48;29;27;
80396;PMS5003;69721;55.894;-3.052;2023-05-07T00:52:15;30;28;
80396;PMS5003;69721;55.894;-3.052;2023-05-07T00:54:40;38;30;
80396;PMS5003;69721;55.894;-3.052;2023-05-07T00:57:05;36;33;
80396;PMS5003;69721;55.894;-3.052;2023-05-07T00:59:30;35;31;
80396;PMS5003;69721;55.894;-3.052;2023-05-07T01:01:55;38;31;
80396;PMS5003;69721;55.894;-3.052;2023-05-07T01:04:20;36;30;
80396;PMS5003;69721;55.894;-3.052;2023-05-07T01:06:46;36;28;
80396;PMS5003;69721;55.894;-3.052;2023-05-07T01:09:11;45;39;
80396;PMS5003;69721;55.894;-3.052;2023-05-07T01:11:37;38;34;
80396;PMS5003;69721;55.894;-3.052;2023-05-07T01:14:03;39;36;
80396;PMS5003;69721;55.894;-3.052;2023-05-07T01:16:28;41;30;
80396;PMS5003;69721;55.894;-3.052;2023-05-07T01:18:54;33;27;
80396;PMS5003;69721;55.894;-3.052;2023-05-07T01:21:19;45;34;
80396;PMS5003;69721;55.894;-3.052;2023-05-07T01:23:45;37;34;
80396;PMS5003;69721;55.894;-3.052;2023-05-07T01:26:10;27;25;
80396;PMS5003;69721;55.894;-3.052;2023-05-07T01:28:36;38;32;
80396;PMS5003;69721;55.894;-3.052;2023-05-07T01:31:02;24;22;
80396;PMS5003;69721;55.894;-3.052;2023-05-07T01:33:27;29;26;
80396;PMS5003;69721;55.894;-3.052;2023-05-07T01:35:52;30;23;
80396;PMS5003;69721;55.894;-3.052;2023-05-07T01:38:17;29;23;
80396;PMS5003;69721;55.894;-3.052;2023-05-07T01:40:42;32;26;
80396;PMS5003;69721;55.894;-3.052;2023-05-07T01:43:08;31;24;
80396;PMS5003;69721;55.894;-3.052;2023-05-07T01:45:33;29;28;
80396;PMS5003;69721;55.894;-3.052;2023-05-07T01:47:58;25;23;
80396;PMS5003;69721;55.894;-3.052;2023-05-07T01:50:24;27;23;
80396;PMS5003;69721;55.894;-3.052;2023-05-07T01:52:50;26;22;
80396;PMS5003;69721;55.894;-3.052;2023-05-07T01:55:14;31;27;
80396;PMS5003;69721;55.894;-3.052;2023-05-07T01:57:40;31;24;
80396;PMS5003;69721;55.894;-3.052;2023-05-07T02:00:05;33;30;
80396;PMS5003;69721;55.894;-3.052;2023-05-07T02:02:31;30;26;
80396;PMS5003;69721;55.894;-3.052;2023-05-07T02:04:56;28;24;
80396;PMS5003;69721;55.894;-3.052;2023-05-07T02:07:22;27;22;
80396;PMS5003;69721;55.894;-3.052;2023-05-07T02:09:47;29;26;
80396;PMS5003;69721;55.894;-3.052;2023-05-07T02:12:12;23;21;
80396;PMS5003;69721;55.894;-3.052;2023-05-07T02:14:38;29;24;
80396;PMS5003;69721;55.894;-3.052;2023-05-07T02:17:03;33;27;
80396;PMS5003;69721;55.894;-3.052;2023-05-07T02:19:29;33;27;
80396;PMS5003;69721;55.894;-3.052;2023-05-07T02:21:54;31;26;
80396;PMS5003;69721;55.894;-3.052;2023-05-07T02:24:20;24;23;
80396;PMS5003;69721;55.894;-3.052;2023-05-07T02:26:45;18;18;
80396;PMS5003;69721;55.894;-3.052;2023-05-07T02:29:11;36;30;
80396;PMS5003;69721;55.894;-3.052;2023-05-07T02:31:37;32;24;
80396;PMS5003;69721;55.894;-3.052;2023-05-07T02:34:02;27;26;
80396;PMS5003;69721;55.894;-3.052;2023-05-07T02:36:28;34;27;
80396;PMS5003;69721;55.894;-3.052;2023-05-07T02:38:53;34;24;
80396;PMS5003;69721;55.894;-3.052;2023-05-07T02:41:19;31;23;
80396;PMS5003;69721;55.894;-3.052;2023-05-07T02:43:44;34;30;
80396;PMS5003;69721;55.894;-3.052;2023-05-07T02:46:09;26;23;
80396;PMS5003;69721;55.894;-3.052;2023-05-07T02:48:35;24;18;
80396;PMS5003;69721;55.894;-3.052;2023-05-07T02:51:01;28;23;
80396;PMS5003;69721;55.894;-3.052;2023-05-07T02:53:27;31;27;
80396;PMS5003;69721;55.894;-3.052;2023-05-07T02:55:52;27;25;
80396;PMS5003;69721;55.894;-3.052;2023-05-07T02:58:18;28;25;
80396;PMS5003;69721;55.894;-3.052;2023-05-07T03:00:43;26;22;
80396;PMS5003;69721;55.894;-3.052;2023-05-07T03:03:12;16;16;
80396;PMS5003;69721;55.894;-3.052;2023-05-07T03:05:37;31;26;
80396;PMS5003;69721;55.894;-3.052;2023-05-07T03:08:02;24;19;
80396;PMS5003;69721;55.894;-3.052;2023-05-07T03:10:28;23;18;
80396;PMS5003;69721;55.894;-3.052;2023-05-07T03:12:53;18;18;
80396;PMS5003;69721;55.894;-3.052;2023-05-07T03:15:18;24;21;
80396;PMS5003;69721;55.894;-3.052;2023-05-07T03:17:43;24;21;
80396;PMS5003;69721;55.894;-3.052;2023-05-07T03:20:09;23;21;
80396;PMS5003;69721;55.894;-3.052;2023-05-07T03:22:34;22;20;
80396;PMS5003;69721;55.894;-3.052;2023-05-07T03:25:00;19;19;
80396;PMS5003;69721;55.894;-3.052;2023-05-07T03:27:25;21;20;
80396;PMS5003;69721;55.894;-3.052;2023-05-07T03:29:51;21;20;
80396;PMS5003;69721;55.894;-3.052;2023-05-07T03:32:16;18;17;
80396;PMS5003;69721;55.894;-3.052;2023-05-07T03:34:41;20;20;
80396;PMS5003;69721;55.894;-3.052;2023-05-07T03:37:07;29;26;
80396;PMS5003;69721;55.894;-3.052;2023-05-07T03:39:32;22;17;
80396;PMS5003;69721;55.894;-3.052;2023-05-07T03:41:58;22;16;
80396;PMS5003;69721;55.894;-3.052;2023-05-07T03:44:24;21;20;
80396;PMS5003;69721;55.894;-3.052;2023-05-07T03:46:49;27;21;
80396;PMS5003;69721;55.894;-3.052;2023-05-07T03:49:14;18;16;
80396;PMS5003;69721;55.894;-3.052;2023-05-07T03:51:40;20;14;
80396;PMS5003;69721;55.894;-3.052;2023-05-07T03:54:06;20;18;
80396;PMS5003;69721;55.894;-3.052;2023-05-07T03:56:31;19;16;
80396;PMS5003;69721;55.894;-3.052;2023-05-07T03:58:57;14;13;
80396;PMS5003;69721;55.894;-3.052;2023-05-07T04:01:22;17;17;
80396;PMS5003;69721;55.894;-3.052;2023-05-07T04:03:49;18;16;
80396;PMS5003;69721;55.894;-3.052;2023-05-07T04:06:15;20;17;
80396;PMS5003;69721;55.894;-3.052;2023-05-07T04:08:39;18;15;
80396;PMS5003;69721;55.894;-3.052;2023-05-07T04:11:04;18;16;
80396;PMS5003;69721;55.894;-3.052;2023-05-07T04:13:30;22;17;
80396;PMS5003;69721;55.894;-3.052;2023-05-07T04:15:55;22;18;
80396;PMS5003;69721;55.894;-3.052;2023-05-07T04:18:21;17;15;
80396;PMS5003;69721;55.894;-3.052;2023-05-07T04:20:46;22;19;
80396;PMS5003;69721;55.894;-3.052;2023-05-07T04:23:11;22;18;
80396;PMS5003;69721;55.894;-3.052;2023-05-07T04:25:37;20;18;
80396;PMS5003;69721;55.894;-3.052;2023-05-07T04:28:03;20;17;
80396;PMS5003;69721;55.894;-3.052;2023-05-07T04:30:28;16;13;
80396;PMS5003;69721;55.894;-3.052;2023-05-07T04:32:54;18;15;
80396;PMS5003;69721;55.894;-3.052;2023-05-07T04:35:20;21;19;
80396;PMS5003;69721;55.894;-3.052;2023-05-07T04:37:45;21;19;
80396;PMS5003;69721;55.894;-3.052;2023-05-07T04:40:11;18;14;
80396;PMS5003;69721;55.894;-3.052;2023-05-07T04:42:36;14;13;
80396;PMS5003;69721;55.894;-3.052;2023-05-07T04:45:02;23;20;
80396;PMS5003;69721;55.894;-3.052;2023-05-07T04:47:27;17;17;
80396;PMS5003;69721;55.894;-3.052;2023-05-07T04:49:53;24;17;
80396;PMS5003;69721;55.894;-3.052;2023-05-07T04:52:18;19;18;
80396;PMS5003;69721;55.894;-3.052;2023-05-07T04:54:43;18;15;
80396;PMS5003;69721;55.894;-3.052;2023-05-07T04:57:09;20;16;
80396;PMS5003;69721;55.894;-3.052;2023-05-07T04:59:34;20;19;
80396;PMS5003;69721;55.894;-3.052;2023-05-07T05:01:59;21;18;
80396;PMS5003;69721;55.894;-3.052;2023-05-07T05:04:25;18;12;
80396;PMS5003;69721;55.894;-3.052;2023-05-07T05:06:50;18;17;
80396;PMS5003;69721;55.894;-3.052;2023-05-07T05:09:16;14;10;
80396;PMS5003;69721;55.894;-3.052;2023-05-07T05:11:41;21;15;
80396;PMS5003;69721;55.894;-3.052;2023-05-07T05:14:07;12;12;
80396;PMS5003;69721;55.894;-3.052;2023-05-07T05:16:32;14;14;
80396;PMS5003;69721;55.894;-3.052;2023-05-07T05:18:57;17;17;
80396;PMS5003;69721;55.894;-3.052;2023-05-07T05:21:23;20;14;
80396;PMS5003;69721;55.894;-3.052;2023-05-07T05:23:48;22;20;
80396;PMS5003;69721;55.894;-3.052;2023-05-07T05:26:13;17;13;
80396;PMS5003;69721;55.894;-3.052;2023-05-07T05:28:39;14;13;
80396;PMS5003;69721;55.894;-3.052;2023-05-07T05:31:04;14;12;
80396;PMS5003;69721;55.894;-3.052;2023-05-07T05:33:30;22;19;
80396;PMS5003;69721;55.894;-3.052;2023-05-07T05:35:56;14;14;
80396;PMS5003;69721;55.894;-3.052;2023-05-07T05:38:20;22;17;
80396;PMS5003;69721;55.894;-3.052;2023-05-07T05:40:46;15;13;
80396;PMS5003;69721;55.894;-3.052;2023-05-07T05:43:12;20;17;
80396;PMS5003;69721;55.894;-3.052;2023-05-07T05:45:37;15;15;
80396;PMS5003;69721;55.894;-3.052;2023-05-07T05:48:03;13;11;
80396;PMS5003;69721;55.894;-3.052;2023-05-07T05:50:28;16;13;
80396;PMS5003;69721;55.894;-3.052;2023-05-07T05:52:54;17;13;
80396;PMS5003;69721;55.894;-3.052;2023-05-07T05:55:20;22;15;
80396;PMS5003;69721;55.894;-3.052;2023-05-07T05:57:45;15;12;
80396;PMS5003;69721;55.894;-3.052;2023-05-07T06:00:10;15;13;
80396;PMS5003;69721;55.894;-3.052;2023-05-07T06:02:35;27;22;
80396;PMS5003;69721;55.894;-3.052;2023-05-07T06:05:01;24;23;
80396;PMS5003;69721;55.894;-3.052;2023-05-07T06:07:26;16;13;
80396;PMS5003;69721;55.894;-3.052;2023-05-07T06:09:51;24;19;
80396;PMS5003;69721;55.894;-3.052;2023-05-07T06:12:17;19;18;
80396;PMS5003;69721;55.894;-3.052;2023-05-07T06:14:43;19;15;
80396;PMS5003;69721;55.894;-3.052;2023-05-07T06:17:08;20;15;
80396;PMS5003;69721;55.894;-3.052;2023-05-07T06:19:33;16;16;
80396;PMS5003;69721;55.894;-3.052;2023-05-07T06:22:00;24;14;
80396;PMS5003;69721;55.894;-3.052;2023-05-07T06:24:24;21;20;
80396;PMS5003;69721;55.894;-3.052;2023-05-07T06:26:49;23;15;
80396;PMS5003;69721;55.894;-3.052;2023-05-07T06:29:15;21;14;
80396;PMS5003;69721;55.894;-3.052;2023-05-07T06:31:41;22;16;
80396;PMS5003;69721;55.894;-3.052;2023-05-07T06:34:06;19;19;
80396;PMS5003;69721;55.894;-3.052;2023-05-07T06:36:32;33;25;
80396;PMS5003;69721;55.894;-3.052;2023-05-07T06:38:57;28;26;
80396;PMS5003;69721;55.894;-3.052;2023-05-07T06:41:22;26;22;
80396;PMS5003;69721;55.894;-3.052;2023-05-07T06:43:47;27;21;
80396;PMS5003;69721;55.894;-3.052;2023-05-07T06:46:13;30;26;
80396;PMS5003;69721;55.894;-3.052;2023-05-07T06:48:38;24;16;
80396;PMS5003;69721;55.894;-3.052;2023-05-07T06:51:04;21;20;
80396;PMS5003;69721;55.894;-3.052;2023-05-07T06:53:29;29;22;
80396;PMS5003;69721;55.894;-3.052;2023-05-07T06:55:54;24;19;
80396;PMS5003;69721;55.894;-3.052;2023-05-07T06:58:19;20;16;
80396;PMS5003;69721;55.894;-3.052;2023-05-07T07:00:45;20;20;
80396;PMS5003;69721;55.894;-3.052;2023-05-07T07:03:10;25;22;
80396;PMS5003;69721;55.894;-3.052;2023-05-07T07:05:35;25;21;
80396;PMS5003;69721;55.894;-3.052;2023-05-07T07:08:00;24;21;
80396;PMS5003;69721;55.894;-3.052;2023-05-07T07:10:25;28;20;
80396;PMS5003;69721;55.894;-3.052;2023-05-07T07:12:51;28;20;
80396;PMS5003;69721;55.894;-3.052;2023-05-07T07:15:16;16;16;
80396;PMS5003;69721;55.894;-3.052;2023-05-07T07:17:41;25;19;
80396;PMS5003;69721;55.894;-3.052;2023-05-07T07:20:07;24;18;
80396;PMS5003;69721;55.894;-3.052;2023-05-07T07:22:32;26;22;
80396;PMS5003;69721;55.894;-3.052;2023-05-07T07:24:57;18;18;
80396;PMS5003;69721;55.894;-3.052;2023-05-07T07:27:22;26;20;
80396;PMS5003;69721;55.894;-3.052;2023-05-07T07:29:48;26;20;
80396;PMS5003;69721;55.894;-3.052;2023-05-07T07:32:14;18;17;
80396;PMS5003;69721;55.894;-3.052;2023-05-07T07:34:41;24;20;
80396;PMS5003;69721;55.894;-3.052;2023-05-07T07:37:10;22;20;
80396;PMS5003;69721;55.894;-3.052;2023-05-07T07:39:31;27;25;
80396;PMS5003;69721;55.894;-3.052;2023-05-07T07:41:55;25;22;
80396;PMS5003;69721;55.894;-3.052;2023-05-07T07:44:21;27;21;
80396;PMS5003;69721;55.894;-3.052;2023-05-07T07:46:46;20;18;
80396;PMS5003;69721;55.894;-3.052;2023-05-07T07:49:12;22;19;
80396;PMS5003;69721;55.894;-3.052;2023-05-07T07:51:37;20;17;
80396;PMS5003;69721;55.894;-3.052;2023-05-07T07:54:03;27;19;
80396;PMS5003;69721;55.894;-3.052;2023-05-07T07:56:28;24;21;
80396;PMS5003;69721;55.894;-3.052;2023-05-07T07:58:53;26;20;
80396;PMS5003;69721;55.894;-3.052;2023-05-07T08:01:19;21;18;
80396;PMS5003;69721;55.894;-3.052;2023-05-07T08:03:44;26;21;
80396;PMS5003;69721;55.894;-3.052;2023-05-07T08:06:09;26;20;
80396;PMS5003;69721;55.894;-3.052;2023-05-07T08:08:35;22;16;
80396;PMS5003;69721;55.894;-3.052;2023-05-07T08:11:01;25;22;
80396;PMS5003;69721;55.894;-3.052;2023-05-07T08:13:26;25;21;
80396;PMS5003;69721;55.894;-3.052;2023-05-07T08:15:52;26;23;
80396;PMS5003;69721;55.894;-3.052;2023-05-07T08:18:18;24;21;
80396;PMS5003;69721;55.894;-3.052;2023-05-07T08:20:43;23;19;
80396;PMS5003;69721;55.894;-3.052;2023-05-07T08:23:08;26;23;
80396;PMS5003;69721;55.894;-3.052;2023-05-07T08:25:37;9;9;
80396;PMS5003;69721;55.894;-3.052;2023-05-07T08:28:03;21;17;
80396;PMS5003;69721;55.894;-3.052;2023-05-07T08:30:28;25;22;
80396;PMS5003;69721;55.894;-3.052;2023-05-07T08:32:53;26;23;
80396;PMS5003;69721;55.894;-3.052;2023-05-07T08:35:19;19;17;
80396;PMS5003;69721;55.894;-3.052;2023-05-07T08:37:44;22;17;
80396;PMS5003;69721;55.894;-3.052;2023-05-07T08:40:10;24;23;
80396;PMS5003;69721;55.894;-3.052;2023-05-07T08:42:35;24;20;
80396;PMS5003;69721;55.894;-3.052;2023-05-07T08:45:01;17;17;
80396;PMS5003;69721;55.894;-3.052;2023-05-07T08:47:28;21;16;
80396;PMS5003;69721;55.894;-3.052;2023-05-07T08:49:53;20;17;
80396;PMS5003;69721;55.894;-3.052;2023-05-07T08:52:18;20;19;
80396;PMS5003;69721;55.894;-3.052;2023-05-07T08:54:43;19;16;
80396;PMS5003;69721;55.894;-3.052;2023-05-07T08:57:09;21;18;
80396;PMS5003;69721;55.894;-3.052;2023-05-07T08:59:34;21;17;
80396;PMS5003;69721;55.894;-3.052;2023-05-07T09:02:00;17;14;
80396;PMS5003;69721;55.894;-3.052;2023-05-07T09:04:26;13;13;
80396;PMS5003;69721;55.894;-3.052;2023-05-07T09:06:51;18;17;
80396;PMS5003;69721;55.894;-3.052;2023-05-07T09:09:17;18;13;
80396;PMS5003;69721;55.894;-3.052;2023-05-07T09:11:42;18;18;
80396;PMS5003;69721;55.894;-3.052;2023-05-07T09:14:07;20;19;
80396;PMS5003;69721;55.894;-3.052;2023-05-07T09:16:32;19;18;
80396;PMS5003;69721;55.894;-3.052;2023-05-07T09:18:59;19;18;
80396;PMS5003;69721;55.894;-3.052;2023-05-07T09:21:24;20;15;
80396;PMS5003;69721;55.894;-3.052;2023-05-07T09:23:50;17;15;
80396;PMS5003;69721;55.894;-3.052;2023-05-07T09:26:14;24;19;
80396;PMS5003;69721;55.894;-3.052;2023-05-07T09:28:41;23;18;
80396;PMS5003;69721;55.894;-3.052;2023-05-07T09:31:05;20;17;
80396;PMS5003;69721;55.894;-3.052;2023-05-07T09:33:30;23;20;
80396;PMS5003;69721;55.894;-3.052;2023-05-07T09:35:56;21;18;
80396;PMS5003;69721;55.894;-3.052;2023-05-07T09:38:21;20;20;
80396;PMS5003;69721;55.894;-3.052;2023-05-07T09:40:46;20;19;
80396;PMS5003;69721;55.894;-3.052;2023-05-07T09:43:13;26;22;
80396;PMS5003;69721;55.894;-3.052;2023-05-07T09:45:38;19;15;
80396;PMS5003;69721;55.894;-3.052;2023-05-07T09:48:05;20;20;
80396;PMS5003;69721;55.894;-3.052;2023-05-07T09:50:32;22;20;
80396;PMS5003;69721;55.894;-3.052;2023-05-07T09:52:57;19;14;
80396;PMS5003;69721;55.894;-3.052;2023-05-07T09:55:22;20;20;
80396;PMS5003;69721;55.894;-3.052;2023-05-07T09:57:48;19;18;
80396;PMS5003;69721;55.894;-3.052;2023-05-07T10:00:13;19;13;
80396;PMS5003;69721;55.894;-3.052;2023-05-07T10:02:39;20;17;
80396;PMS5003;69721;55.894;-3.052;2023-05-07T10:05:03;20;16;
80396;PMS5003;69721;55.894;-3.052;2023-05-07T10:07:29;27;23;
80396;PMS5003;69721;55.894;-3.052;2023-05-07T10:09:55;27;23;
80396;PMS5003;69721;55.894;-3.052;2023-05-07T10:12:20;25;24;
80396;PMS5003;69721;55.894;-3.052;2023-05-07T10:14:45;25;20;
80396;PMS5003;69721;55.894;-3.052;2023-05-07T10:17:11;21;19;
80396;PMS5003;69721;55.894;-3.052;2023-05-07T10:19:37;23;19;
80396;PMS5003;69721;55.894;-3.052;2023-05-07T10:22:04;21;18;
80396;PMS5003;69721;55.894;-3.052;2023-05-07T10:24:29;21;19;
80396;PMS5003;69721;55.894;-3.052;2023-05-07T10:26:53;25;22;
80396;PMS5003;69721;55.894;-3.052;2023-05-07T10:29:18;30;20;
80396;PMS5003;69721;55.894;-3.052;2023-05-07T10:31:49;30;26;
80396;PMS5003;69721;55.894;-3.052;2023-05-07T10:34:09;19;19;
80396;PMS5003;69721;55.894;-3.052;2023-05-07T10:36:34;26;20;
80396;PMS5003;69721;55.894;-3.052;2023-05-07T10:39:00;29;23;
80396;PMS5003;69721;55.894;-3.052;2023-05-07T10:41:25;17;17;
80396;PMS5003;69721;55.894;-3.052;2023-05-07T10:43:50;29;24;
80396;PMS5003;69721;55.894;-3.052;2023-05-07T10:46:16;18;16;
80396;PMS5003;69721;55.894;-3.052;2023-05-07T10:53:34;23;19;
80396;PMS5003;69721;55.894;-3.052;2023-05-07T10:58:25;24;22;
80396;PMS5003;69721;55.894;-3.052;2023-05-07T11:00:50;20;18;
80396;PMS5003;69721;55.894;-3.052;2023-05-07T11:03:15;25;23;
80396;PMS5003;69721;55.894;-3.052;2023-05-07T11:05:41;24;21;
80396;PMS5003;69721;55.894;-3.052;2023-05-07T11:08:08;27;25;
80396;PMS5003;69721;55.894;-3.052;2023-05-07T11:12:58;18;17;
80396;PMS5003;69721;55.894;-3.052;2023-05-07T11:17:53;18;17;
80396;PMS5003;69721;55.894;-3.052;2023-05-07T11:20:14;20;19;
80396;PMS5003;69721;55.894;-3.052;2023-05-07T11:22:40;21;21;
80396;PMS5003;69721;55.894;-3.052;2023-05-07T11:25:06;19;18;
80396;PMS5003;69721;55.894;-3.052;2023-05-07T11:27:32;24;17;
80396;PMS5003;69721;55.894;-3.052;2023-05-07T11:29:57;22;16;
80396;PMS5003;69721;55.894;-3.052;2023-05-07T11:32:22;21;17;
80396;PMS5003;69721;55.894;-3.052;2023-05-07T11:34:50;20;18;
80396;PMS5003;69721;55.894;-3.052;2023-05-07T11:37:16;18;14;
80396;PMS5003;69721;55.894;-3.052;2023-05-07T11:39:38;21;20;
80396;PMS5003;69721;55.894;-3.052;2023-05-07T11:42:03;22;17;
80396;PMS5003;69721;55.894;-3.052;2023-05-07T11:46:54;23;20;
80396;PMS5003;69721;55.894;-3.052;2023-05-07T11:49:19;17;17;
80396;PMS5003;69721;55.894;-3.052;2023-05-07T11:51:45;24;21;
80396;PMS5003;69721;55.894;-3.052;2023-05-07T11:54:10;22;19;
80396;PMS5003;69721;55.894;-3.052;2023-05-07T11:56:36;22;18;
80396;PMS5003;69721;55.894;-3.052;2023-05-07T11:59:01;20;20;
80396;PMS5003;69721;55.894;-3.052;2023-05-07T12:01:26;26;24;
80396;PMS5003;69721;55.894;-3.052;2023-05-07T12:03:53;22;19;
80396;PMS5003;69721;55.894;-3.052;2023-05-07T12:06:18;20;17;
80396;PMS5003;69721;55.894;-3.052;2023-05-07T12:08:44;21;19;
80396;PMS5003;69721;55.894;-3.052;2023-05-07T12:11:09;22;20;
80396;PMS5003;69721;55.894;-3.052;2023-05-07T12:13:34;23;20;
80396;PMS5003;69721;55.894;-3.052;2023-05-07T12:15:59;16;15;
80396;PMS5003;69721;55.894;-3.052;2023-05-07T12:18:25;20;18;
80396;PMS5003;69721;55.894;-3.052;2023-05-07T12:20:50;29;27;
80396;PMS5003;69721;55.894;-3.052;2023-05-07T12:23:16;18;14;
80396;PMS5003;69721;55.894;-3.052;2023-05-07T12:25:41;23;18;
80396;PMS5003;69721;55.894;-3.052;2023-05-07T12:28:07;17;14;
80396;PMS5003;69721;55.894;-3.052;2023-05-07T12:30:32;19;16;
80396;PMS5003;69721;55.894;-3.052;2023-05-07T12:32:57;17;14;
80396;PMS5003;69721;55.894;-3.052;2023-05-07T12:35:26;17;16;
80396;PMS5003;69721;55.894;-3.052;2023-05-07T12:40:14;24;22;
80396;PMS5003;69721;55.894;-3.052;2023-05-07T12:42:39;26;24;
80396;PMS5003;69721;55.894;-3.052;2023-05-07T12:45:09;23;19;
80396;PMS5003;69721;55.894;-3.052;2023-05-07T12:47:30;26;24;
80396;PMS5003;69721;55.894;-3.052;2023-05-07T12:49:55;20;19;
80396;PMS5003;69721;55.894;-3.052;2023-05-07T12:52:20;21;20;
80396;PMS5003;69721;55.894;-3.052;2023-05-07T12:54:46;25;23;
80396;PMS5003;69721;55.894;-3.052;2023-05-07T12:57:11;23;22;
80396;PMS5003;69721;55.894;-3.052;2023-05-07T12:59:38;24;19;
80396;PMS5003;69721;55.894;-3.052;2023-05-07T13:02:03;30;23;
80396;PMS5003;69721;55.894;-3.052;2023-05-07T13:04:28;26;26;
80396;PMS5003;69721;55.894;-3.052;2023-05-07T13:06:54;26;23;
80396;PMS5003;69721;55.894;-3.052;2023-05-07T13:09:19;25;22;
80396;PMS5003;69721;55.894;-3.052;2023-05-07T13:11:44;21;21;
80396;PMS5003;69721;55.894;-3.052;2023-05-07T13:14:10;23;22;
80396;PMS5003;69721;55.894;-3.052;2023-05-07T13:16:35;20;20;
80396;PMS5003;69721;55.894;-3.052;2023-05-07T13:19:01;23;19;
80396;PMS5003;69721;55.894;-3.052;2023-05-07T13:21:26;25;23;
80396;PMS5003;69721;55.894;-3.052;2023-05-07T13:23:51;22;21;
80396;PMS5003;69721;55.894;-3.052;2023-05-07T13:26:17;27;22;
80396;PMS5003;69721;55.894;-3.052;2023-05-07T13:28:42;20;20;
80396;PMS5003;69721;55.894;-3.052;2023-05-07T13:31:07;25;22;
80396;PMS5003;69721;55.894;-3.052;2023-05-07T13:33:32;24;20;
80396;PMS5003;69721;55.894;-3.052;2023-05-07T13:35:58;23;22;
80396;PMS5003;69721;55.894;-3.052;2023-05-07T13:38:24;23;20;
80396;PMS5003;69721;55.894;-3.052;2023-05-07T13:40:49;25;25;
80396;PMS5003;69721;55.894;-3.052;2023-05-07T13:43:14;23;22;
80396;PMS5003;69721;55.894;-3.052;2023-05-07T13:45:40;23;22;
80396;PMS5003;69721;55.894;-3.052;2023-05-07T13:48:06;25;22;
80396;PMS5003;69721;55.894;-3.052;2023-05-07T13:50:32;28;22;
80396;PMS5003;69721;55.894;-3.052;2023-05-07T13:52:58;27;25;
80396;PMS5003;69721;55.894;-3.052;2023-05-07T13:55:24;28;22;
80396;PMS5003;69721;55.894;-3.052;2023-05-07T13:57:54;27;24;
80396;PMS5003;69721;55.894;-3.052;2023-05-07T14:00:14;25;22;
80396;PMS5003;69721;55.894;-3.052;2023-05-07T14:02:40;21;21;
80396;PMS5003;69721;55.894;-3.052;2023-05-07T14:05:06;31;26;
80396;PMS5003;69721;55.894;-3.052;2023-05-07T14:07:36;31;28;
80396;PMS5003;69721;55.894;-3.052;2023-05-07T14:09:56;27;23;
80396;PMS5003;69721;55.894;-3.052;2023-05-07T14:12:21;24;22;
80396;PMS5003;69721;55.894;-3.052;2023-05-07T14:14:47;32;26;
80396;PMS5003;69721;55.894;-3.052;2023-05-07T14:17:12;16;16;
80396;PMS5003;69721;55.894;-3.052;2023-05-07T14:19:37;27;25;
80396;PMS5003;69721;55.894;-3.052;2023-05-07T14:22:03;23;19;
80396;PMS5003;69721;55.894;-3.052;2023-05-07T14:24:28;14;14;
80396;PMS5003;69721;55.894;-3.052;2023-05-07T14:26:53;32;26;
80396;PMS5003;69721;55.894;-3.052;2023-05-07T14:29:18;25;23;
80396;PMS5003;69721;55.894;-3.052;2023-05-07T14:31:44;24;21;
80396;PMS5003;69721;55.894;-3.052;2023-05-07T14:34:09;24;22;
80396;PMS5003;69721;55.894;-3.052;2023-05-07T14:36:34;36;28;
80396;PMS5003;69721;55.894;-3.052;2023-05-07T14:38:59;31;28;
80396;PMS5003;69721;55.894;-3.052;2023-05-07T14:41:25;32;27;
80396;PMS5003;69721;55.894;-3.052;2023-05-07T14:43:51;22;20;
80396;PMS5003;69721;55.894;-3.052;2023-05-07T14:46:16;27;23;
80396;PMS5003;69721;55.894;-3.052;2023-05-07T14:48:42;35;26;
80396;PMS5003;69721;55.894;-3.052;2023-05-07T14:51:07;36;31;
80396;PMS5003;69721;55.894;-3.052;2023-05-07T14:53:32;30;28;
80396;PMS5003;69721;55.894;-3.052;2023-05-07T14:55:58;36;25;
80396;PMS5003;69721;55.894;-3.052;2023-05-07T14:58:23;36;28;
80396;PMS5003;69721;55.894;-3.052;2023-05-07T15:00:51;34;32;
80396;PMS5003;69721;55.894;-3.052;2023-05-07T15:03:16;38;31;
80396;PMS5003;69721;55.894;-3.052;2023-05-07T15:05:41;29;27;
80396;PMS5003;69721;55.894;-3.052;2023-05-07T15:08:06;33;30;
80396;PMS5003;69721;55.894;-3.052;2023-05-07T15:10:34;33;27;
80396;PMS5003;69721;55.894;-3.052;2023-05-07T15:12:57;30;29;
80396;PMS5003;69721;55.894;-3.052;2023-05-07T15:15:22;33;27;
80396;PMS5003;69721;55.894;-3.052;2023-05-07T15:17:48;31;27;
80396;PMS5003;69721;55.894;-3.052;2023-05-07T15:20:13;30;27;
80396;PMS5003;69721;55.894;-3.052;2023-05-07T15:22:38;35;28;
80396;PMS5003;69721;55.894;-3.052;2023-05-07T15:25:05;40;29;
80396;PMS5003;69721;55.894;-3.052;2023-05-07T15:27:30;32;27;
80396;PMS5003;69721;55.894;-3.052;2023-05-07T15:29:57;36;32;
80396;PMS5003;69721;55.894;-3.052;2023-05-07T15:32:21;38;34;
80396;PMS5003;69721;55.894;-3.052;2023-05-07T15:34:46;33;30;
80396;PMS5003;69721;55.894;-3.052;2023-05-07T15:37:12;42;34;
80396;PMS5003;69721;55.894;-3.052;2023-05-07T15:39:37;36;25;
80396;PMS5003;69721;55.894;-3.052;2023-05-07T15:42:02;43;37;
80396;PMS5003;69721;55.894;-3.052;2023-05-07T15:44:28;37;33;
80396;PMS5003;69721;55.894;-3.052;2023-05-07T15:46:53;36;32;
80396;PMS5003;69721;55.894;-3.052;2023-05-07T15:49:18;40;34;
80396;PMS5003;69721;55.894;-3.052;2023-05-07T15:51:45;30;26;
80396;PMS5003;69721;55.894;-3.052;2023-05-07T15:54:09;40;29;
80396;PMS5003;69721;55.894;-3.052;2023-05-07T15:56:35;34;30;
80396;PMS5003;69721;55.894;-3.052;2023-05-07T15:59:00;32;28;
80396;PMS5003;69721;55.894;-3.052;2023-05-07T16:01:26;34;26;
80396;PMS5003;69721;55.894;-3.052;2023-05-07T16:03:51;26;26;
80396;PMS5003;69721;55.894;-3.052;2023-05-07T16:06:16;34;30;